Time;durP1;ratioP1;P1;durP2;ratioP2;P2;SDS_P1;SDS_P2;PMS_P1;PMS_P2;Temp;Humidity;BMP_temperature;BMP_pressure;BME280_temperature;BME280_humidity;BME280_pressure;Samples;Min_cycle;Max_cycle;Signal;HPM_P1;HPM_P2
2022/03/29 00:02:28;;;;;;;;;;;14.60;99.00;;;;;;5207209;28;19917;-73
2022/03/29 00:05:04;;;;;;;;;;;14.80;99.00;;;;;;5187348;28;19909;-74
2022/03/29 00:07:40;;;;;;;;;;;14.90;98.90;;;;;;5208855;28;19922;-73
2022/03/29 00:10:15;;;;;;;;;;;14.70;98.90;;;;;;5205955;28;19919;-73
2022/03/29 00:12:46;;;;;;;;;;;14.60;99.10;;;;;;5218152;28;19923;-73
2022/03/29 00:15:18;;;;;;;;;;;14.50;99.10;;;;;;5201380;28;19917;-74
2022/03/29 00:17:51;;;;;;;;;;;14.40;99.40;;;;;;5200917;28;20335;-72
2022/03/29 00:20:26;;;;;;;;;;;14.30;99.50;;;;;;5201949;28;20584;-72
2022/03/29 00:23:00;;;;;;;;;;;14.30;99.60;;;;;;5201373;28;19915;-72
2022/03/29 00:25:34;;;;;;;;;;;14.40;99.60;;;;;;5175768;28;19923;-72
2022/03/29 00:28:16;;;;;;;;;;;14.40;99.50;;;;;;5209873;28;19915;-72
2022/03/29 00:30:51;;;;;;;;;;;14.40;99.60;;;;;;5166828;28;19927;-73
2022/03/29 00:33:25;;;;;;;;;;;14.20;99.70;;;;;;5189449;28;19917;-72
2022/03/29 00:35:59;;;;;;;;;;;14.10;99.90;;;;;;5216072;28;19908;-72
2022/03/29 00:38:43;;;;;;;;;;;13.90;99.90;;;;;;5177352;28;19917;-73
2022/03/29 00:41:15;;;;;;;;;;;13.80;99.90;;;;;;5205536;28;19909;-74
2022/03/29 00:43:49;;;;;;;;;;;13.70;99.90;;;;;;5198892;28;19926;-74
2022/03/29 00:46:25;;;;;;;;;;;13.60;99.90;;;;;;5207618;28;19909;-72
2022/03/29 00:48:59;;;;;;;;;;;13.40;99.90;;;;;;5217306;28;19912;-73
2022/03/29 00:51:35;;;;;;;;;;;13.40;99.90;;;;;;5229883;28;19917;-74
2022/03/29 00:54:07;;;;;;;;;;;13.30;99.90;;;;;;5192690;28;19923;-73
2022/03/29 00:56:39;;;;;;;;;;;13.00;99.90;;;;;;5206438;28;19919;-73
2022/03/29 00:59:13;;;;;;;;;;;12.80;99.90;;;;;;5201137;28;19914;-73
2022/03/29 01:01:48;;;;;;;;;;;12.80;99.90;;;;;;5187467;28;19917;-74
2022/03/29 01:04:23;;;;;;;;;;;12.80;99.90;;;;;;5180250;28;19917;-74
2022/03/29 01:06:58;;;;;;;;;;;12.90;99.90;;;;;;5188696;28;19916;-74
2022/03/29 01:09:33;;;;;;;;;;;13.00;99.90;;;;;;5219211;28;19920;-74
2022/03/29 01:12:05;;;;;;;;;;;13.00;99.90;;;;;;5189728;28;19929;-75
2022/03/29 01:14:42;;;;;;;;;;;13.00;99.90;;;;;;5188814;28;19920;-75
2022/03/29 01:20:11;;;;;;;;;;;12.30;99.90;;;;;;5202069;28;19915;-73
2022/03/29 01:22:47;;;;;;;;;;;11.90;99.90;;;;;;5183393;28;19919;-74
2022/03/29 01:25:25;;;;;;;;;;;11.50;99.90;;;;;;5202489;28;19909;-74
2022/03/29 01:27:58;;;;;;;;;;;11.20;99.90;;;;;;5215559;28;19896;-73
2022/03/29 01:30:30;;;;;;;;;;;10.80;99.90;;;;;;5194146;28;19921;-74
2022/03/29 01:33:06;;;;;;;;;;;10.60;99.90;;;;;;5205233;28;19916;-74
2022/03/29 01:35:38;;;;;;;;;;;10.30;99.90;;;;;;5193350;28;19900;-73
2022/03/29 01:38:13;;;;;;;;;;;10.10;99.90;;;;;;5196258;28;19905;-74
2022/03/29 01:40:44;;;;;;;;;;;9.90;99.90;;;;;;5195566;28;20375;-74
2022/03/29 01:43:18;;;;;;;;;;;9.70;99.90;;;;;;5199712;28;19905;-72
2022/03/29 01:45:55;;;;;;;;;;;9.60;99.90;;;;;;5192659;28;19917;-73
2022/03/29 01:48:31;;;;;;;;;;;9.40;99.90;;;;;;5193543;28;19923;-73
2022/03/29 01:51:02;;;;;;;;;;;9.20;99.90;;;;;;5204848;28;19923;-73
2022/03/29 01:53:36;;;;;;;;;;;9.20;99.90;;;;;;5195441;28;19911;-73
2022/03/29 01:56:07;;;;;;;;;;;9.20;99.90;;;;;;5166918;28;19915;-75
2022/03/29 01:58:38;;;;;;;;;;;9.00;99.90;;;;;;5199069;28;20347;-73
2022/03/29 02:01:15;;;;;;;;;;;8.90;99.90;;;;;;5200315;28;19904;-74
2022/03/29 02:03:49;;;;;;;;;;;8.70;99.90;;;;;;5208709;28;19915;-73
2022/03/29 02:06:20;;;;;;;;;;;8.60;99.90;;;;;;5189551;28;19913;-73
2022/03/29 02:08:54;;;;;;;;;;;8.60;99.90;;;;;;5201823;28;19913;-74
2022/03/29 02:11:29;;;;;;;;;;;8.50;99.90;;;;;;5190723;28;19908;-74
2022/03/29 02:14:06;;;;;;;;;;;8.40;99.90;;;;;;5199053;28;19912;-74
2022/03/29 02:16:37;;;;;;;;;;;8.30;99.90;;;;;;5190913;28;19927;-73
2022/03/29 02:19:15;;;;;;;;;;;8.20;99.90;;;;;;5208862;28;20091;-73
2022/03/29 02:21:51;;;;;;;;;;;8.10;99.90;;;;;;5197848;28;19943;-73
2022/03/29 02:24:22;;;;;;;;;;;8.10;99.90;;;;;;5193013;28;19911;-73
2022/03/29 02:26:56;;;;;;;;;;;8.10;99.90;;;;;;5196003;28;20252;-72
2022/03/29 02:29:27;;;;;;;;;;;8.00;99.90;;;;;;5201202;28;19912;-73
2022/03/29 02:32:01;;;;;;;;;;;8.10;99.90;;;;;;5212102;28;19915;-72
2022/03/29 02:34:32;;;;;;;;;;;8.10;99.90;;;;;;5193812;28;19905;-73
2022/03/29 02:37:11;;;;;;;;;;;8.10;99.90;;;;;;5194730;28;19908;-73
2022/03/29 02:39:49;;;;;;;;;;;8.10;99.90;;;;;;5195749;28;19924;-73
2022/03/29 02:42:20;;;;;;;;;;;8.20;99.90;;;;;;5197590;28;19916;-73
2022/03/29 02:44:51;;;;;;;;;;;8.30;99.90;;;;;;5202193;28;19916;-73
2022/03/29 02:47:23;;;;;;;;;;;8.30;99.90;;;;;;5203360;28;19905;-74
2022/03/29 02:50:02;;;;;;;;;;;8.30;99.90;;;;;;5197048;28;19917;-75
2022/03/29 02:52:41;;;;;;;;;;;8.30;99.90;;;;;;5199772;28;19904;-73
2022/03/29 02:55:12;;;;;;;;;;;8.40;99.90;;;;;;5205788;28;19909;-74
2022/03/29 02:57:46;;;;;;;;;;;8.70;99.90;;;;;;5194523;28;19916;-74
2022/03/29 03:00:18;;;;;;;;;;;8.50;99.90;;;;;;5207517;28;19913;-73
2022/03/29 03:02:50;;;;;;;;;;;8.40;99.90;;;;;;5194619;28;19907;-73
2022/03/29 03:05:27;;;;;;;;;;;8.30;99.90;;;;;;5174649;28;20038;-73
2022/03/29 03:08:02;;;;;;;;;;;8.50;99.90;;;;;;5187010;28;19921;-73
2022/03/29 03:10:33;;;;;;;;;;;8.40;99.90;;;;;;5199561;28;19915;-73
2022/03/29 03:13:07;;;;;;;;;;;8.30;99.90;;;;;;5180686;28;19916;-73
2022/03/29 03:15:41;;;;;;;;;;;8.20;99.90;;;;;;5184881;28;19909;-74
2022/03/29 03:18:15;;;;;;;;;;;8.10;99.90;;;;;;5206316;28;20396;-76
2022/03/29 03:20:46;;;;;;;;;;;8.00;99.90;;;;;;5218580;28;19923;-73
2022/03/29 03:23:19;;;;;;;;;;;8.00;99.90;;;;;;5193293;28;19916;-74
2022/03/29 03:25:54;;;;;;;;;;;7.90;99.90;;;;;;5189530;28;19909;-73
2022/03/29 03:28:27;;;;;;;;;;;7.80;99.90;;;;;;5199553;28;20330;-73
2022/03/29 03:30:59;;;;;;;;;;;7.80;99.90;;;;;;5210708;28;20474;-72
2022/03/29 03:33:35;;;;;;;;;;;7.80;99.90;;;;;;5191570;28;19909;-73
2022/03/29 03:36:10;;;;;;;;;;;7.70;99.90;;;;;;5198907;28;19909;-72
2022/03/29 03:38:44;;;;;;;;;;;7.80;99.90;;;;;;5216989;28;19924;-74
2022/03/29 03:41:18;;;;;;;;;;;7.80;99.90;;;;;;5198523;28;19916;-75
2022/03/29 03:43:54;;;;;;;;;;;7.70;99.90;;;;;;5175260;28;19923;-74
2022/03/29 03:46:30;;;;;;;;;;;7.60;99.90;;;;;;5192702;28;19946;-74
2022/03/29 03:49:02;;;;;;;;;;;7.60;99.90;;;;;;5214641;28;19913;-73
2022/03/29 03:51:38;;;;;;;;;;;7.60;99.90;;;;;;5196976;28;19916;-74
2022/03/29 03:54:17;;;;;;;;;;;7.60;99.90;;;;;;5184124;28;19919;-74
2022/03/29 03:56:50;;;;;;;;;;;7.70;99.90;;;;;;5193031;28;19909;-74
2022/03/29 03:59:23;;;;;;;;;;;7.70;99.90;;;;;;5192974;28;20406;-72
2022/03/29 04:01:55;;;;;;;;;;;7.80;99.90;;;;;;5191095;28;19916;-74
2022/03/29 04:04:26;;;;;;;;;;;7.90;99.90;;;;;;5176840;28;19916;-73
2022/03/29 04:07:02;;;;;;;;;;;8.10;99.90;;;;;;5183307;28;19916;-73
2022/03/29 04:09:39;;;;;;;;;;;8.20;99.90;;;;;;5198008;28;19921;-73
2022/03/29 04:12:11;;;;;;;;;;;8.10;99.90;;;;;;5201084;28;19924;-73
2022/03/29 04:14:44;;;;;;;;;;;8.30;99.90;;;;;;5202362;28;19909;-73
2022/03/29 04:17:16;;;;;;;;;;;8.30;99.90;;;;;;5188658;28;19920;-73
2022/03/29 04:19:52;;;;;;;;;;;8.30;99.90;;;;;;5188869;28;19904;-73
2022/03/29 04:22:24;;;;;;;;;;;8.40;99.90;;;;;;5198342;28;20550;-74
2022/03/29 04:24:57;;;;;;;;;;;8.30;99.90;;;;;;5201150;28;20256;-72
2022/03/29 04:27:31;;;;;;;;;;;8.30;99.90;;;;;;5197311;28;20460;-74
2022/03/29 04:30:03;;;;;;;;;;;8.20;99.90;;;;;;5199610;28;19917;-74
2022/03/29 04:32:41;;;;;;;;;;;8.20;99.90;;;;;;5198488;28;19923;-72
2022/03/29 04:35:12;;;;;;;;;;;8.10;99.90;;;;;;5189662;28;20447;-72
2022/03/29 04:37:49;;;;;;;;;;;8.00;99.90;;;;;;5195507;28;19908;-74
2022/03/29 04:40:25;;;;;;;;;;;7.90;99.90;;;;;;5198053;28;19916;-72
2022/03/29 04:43:00;;;;;;;;;;;7.80;99.90;;;;;;5194802;28;20202;-73
2022/03/29 04:45:31;;;;;;;;;;;7.70;99.90;;;;;;5170137;28;19917;-72
2022/03/29 04:48:05;;;;;;;;;;;7.60;99.90;;;;;;5206200;28;19909;-73
2022/03/29 04:50:40;;;;;;;;;;;7.50;99.90;;;;;;5209838;28;19920;-72
2022/03/29 04:53:14;;;;;;;;;;;7.50;99.90;;;;;;5186366;28;19919;-73
2022/03/29 04:55:50;;;;;;;;;;;7.40;99.90;;;;;;5205597;28;19924;-72
2022/03/29 04:58:22;;;;;;;;;;;7.30;99.90;;;;;;5198537;28;19909;-72
2022/03/29 05:00:54;;;;;;;;;;;7.40;99.90;;;;;;5210710;28;19923;-72
2022/03/29 05:03:26;;;;;;;;;;;7.40;99.90;;;;;;5216154;28;19916;-74
2022/03/29 05:06:00;;;;;;;;;;;7.50;99.90;;;;;;5177566;28;19947;-72
2022/03/29 05:08:36;;;;;;;;;;;7.50;99.90;;;;;;5205179;28;19915;-73
2022/03/29 05:11:10;;;;;;;;;;;7.70;99.90;;;;;;5194918;28;20441;-72
2022/03/29 05:13:41;;;;;;;;;;;7.80;99.90;;;;;;5189284;28;19917;-72
2022/03/29 05:16:13;;;;;;;;;;;7.80;99.90;;;;;;5203647;28;19908;-74
2022/03/29 05:18:47;;;;;;;;;;;7.90;99.90;;;;;;5199240;28;19913;-74
2022/03/29 05:21:21;;;;;;;;;;;8.20;99.90;;;;;;5220002;28;19907;-72
2022/03/29 05:23:55;;;;;;;;;;;8.40;99.90;;;;;;5188304;28;20312;-74
2022/03/29 05:26:29;;;;;;;;;;;8.50;99.90;;;;;;5220626;28;19915;-73
2022/03/29 05:29:03;;;;;;;;;;;8.60;99.90;;;;;;5201862;28;19916;-72
2022/03/29 05:31:34;;;;;;;;;;;8.80;99.90;;;;;;5203232;28;20130;-73
2022/03/29 05:34:10;;;;;;;;;;;9.00;99.90;;;;;;5169899;28;20276;-72
2022/03/29 05:36:46;;;;;;;;;;;9.20;99.90;;;;;;5194850;28;19925;-73
2022/03/29 05:39:18;;;;;;;;;;;9.40;99.90;;;;;;5196402;28;20383;-72
2022/03/29 05:41:49;;;;;;;;;;;9.70;99.90;;;;;;5193272;28;19916;-73
2022/03/29 05:44:23;;;;;;;;;;;9.90;99.90;;;;;;5214616;28;19904;-73
2022/03/29 05:49:44;;;;;;;;;;;10.40;99.90;;;;;;5198449;28;19917;-73
2022/03/29 05:52:21;;;;;;;;;;;10.80;99.90;;;;;;5215580;28;19919;-74
2022/03/29 05:54:57;;;;;;;;;;;10.90;99.90;;;;;;5214572;28;19897;-73
2022/03/29 05:57:31;;;;;;;;;;;11.20;99.90;;;;;;5198016;28;19905;-73
2022/03/29 06:00:06;;;;;;;;;;;11.50;99.90;;;;;;5212025;28;19904;-72
2022/03/29 06:02:38;;;;;;;;;;;11.40;99.90;;;;;;5182196;28;20121;-72
2022/03/29 06:05:11;;;;;;;;;;;11.40;99.90;;;;;;5184253;28;20345;-73
2022/03/29 06:07:50;;;;;;;;;;;11.60;99.90;;;;;;5206771;28;19905;-73
2022/03/29 06:10:21;;;;;;;;;;;11.80;99.90;;;;;;5216428;28;20424;-72
2022/03/29 06:12:54;;;;;;;;;;;12.10;99.90;;;;;;5216122;28;19909;-73
2022/03/29 06:15:27;;;;;;;;;;;12.30;99.90;;;;;;5212215;28;19916;-75
2022/03/29 06:17:58;;;;;;;;;;;12.60;99.90;;;;;;5213706;28;19917;-73
2022/03/29 06:20:30;;;;;;;;;;;12.80;99.90;;;;;;5209483;28;19912;-73
2022/03/29 06:23:05;;;;;;;;;;;12.90;99.90;;;;;;5211663;28;19976;-74
2022/03/29 06:25:46;;;;;;;;;;;12.90;99.90;;;;;;5209401;28;20379;-73
2022/03/29 06:28:18;;;;;;;;;;;13.20;99.90;;;;;;5192770;28;19931;-72
2022/03/29 06:30:49;;;;;;;;;;;13.30;99.90;;;;;;5183656;28;19917;-73
2022/03/29 06:33:20;;;;;;;;;;;13.50;99.90;;;;;;5204248;28;19908;-73
2022/03/29 06:35:55;;;;;;;;;;;13.60;99.90;;;;;;5191313;28;19909;-73
2022/03/29 06:38:26;;;;;;;;;;;13.80;99.90;;;;;;5192448;28;20264;-74
2022/03/29 06:41:01;;;;;;;;;;;13.60;99.90;;;;;;5208475;28;19924;-73
2022/03/29 06:43:36;;;;;;;;;;;13.80;99.90;;;;;;5193981;28;19919;-73
2022/03/29 06:46:11;;;;;;;;;;;13.90;99.90;;;;;;5186971;28;20330;-72
2022/03/29 06:48:44;;;;;;;;;;;14.00;99.90;;;;;;5201054;28;19911;-74
2022/03/29 06:51:18;;;;;;;;;;;14.00;99.90;;;;;;5178222;28;20375;-73
2022/03/29 06:53:55;;;;;;;;;;;14.20;99.90;;;;;;5195237;28;19909;-74
2022/03/29 06:56:26;;;;;;;;;;;14.20;99.90;;;;;;5209178;28;19909;-73
2022/03/29 06:59:00;;;;;;;;;;;14.20;99.90;;;;;;5220241;28;20279;-74
2022/03/29 07:01:34;;;;;;;;;;;14.30;99.90;;;;;;5200190;28;20375;-73
2022/03/29 07:04:10;;;;;;;;;;;14.60;99.90;;;;;;5200199;28;19909;-73
2022/03/29 07:06:42;;;;;;;;;;;15.10;99.90;;;;;;5189995;28;19916;-73
2022/03/29 07:12:06;;;;;;;;;;;15.80;99.90;;;;;;5205566;28;20107;-73
2022/03/29 07:14:40;;;;;;;;;;;16.10;99.90;;;;;;5195751;28;20007;-73
2022/03/29 07:17:17;;;;;;;;;;;16.30;99.90;;;;;;5186247;28;19939;-73
2022/03/29 07:19:51;;;;;;;;;;;16.50;99.90;;;;;;5195443;28;19916;-74
2022/03/29 07:22:25;;;;;;;;;;;16.70;99.90;;;;;;5200102;28;20332;-74
2022/03/29 07:24:57;;;;;;;;;;;16.90;99.90;;;;;;5214689;28;19908;-76
2022/03/29 07:27:28;;;;;;;;;;;17.00;99.90;;;;;;5201563;28;20376;-74
2022/03/29 07:30:03;;;;;;;;;;;17.20;99.90;;;;;;5194502;28;19917;-72
2022/03/29 07:32:44;;;;;;;;;;;17.40;99.90;;;;;;5203449;28;19917;-72
2022/03/29 07:35:20;;;;;;;;;;;17.40;99.90;;;;;;5210326;28;19915;-73
2022/03/29 07:37:55;;;;;;;;;;;17.60;99.90;;;;;;5180437;28;19923;-73
2022/03/29 07:40:28;;;;;;;;;;;18.00;99.90;;;;;;5220032;28;20235;-73
2022/03/29 07:43:05;;;;;;;;;;;17.80;99.90;;;;;;5185686;28;19915;-72
2022/03/29 07:45:37;;;;;;;;;;;17.60;99.90;;;;;;5168466;28;20509;-72
2022/03/29 07:48:09;;;;;;;;;;;17.50;99.90;;;;;;5188404;28;19915;-73
2022/03/29 07:50:45;;;;;;;;;;;17.70;99.90;;;;;;5212593;28;19923;-75
2022/03/29 07:53:21;;;;;;;;;;;17.90;99.90;;;;;;5211586;28;19909;-74
2022/03/29 07:55:55;;;;;;;;;;;18.10;99.90;;;;;;5188452;28;19916;-72
2022/03/29 07:58:26;;;;;;;;;;;18.10;99.90;;;;;;5210018;28;20111;-72
2022/03/29 08:01:00;;;;;;;;;;;18.00;99.90;;;;;;5173746;28;20130;-73
2022/03/29 08:03:33;;;;;;;;;;;18.10;99.90;;;;;;5212188;28;19923;-72
2022/03/29 08:06:10;;;;;;;;;;;18.10;99.90;;;;;;5183492;28;19921;-73
2022/03/29 08:08:41;;;;;;;;;;;18.10;99.90;;;;;;5211021;28;19912;-73
2022/03/29 08:11:14;;;;;;;;;;;18.20;99.90;;;;;;5192129;28;19921;-75
2022/03/29 08:13:49;;;;;;;;;;;18.10;99.90;;;;;;5202957;28;19909;-73
2022/03/29 08:16:20;;;;;;;;;;;18.00;99.90;;;;;;5187853;28;19921;-73
2022/03/29 08:18:56;;;;;;;;;;;18.40;99.90;;;;;;5205024;28;20376;-73
2022/03/29 08:24:18;;;;;;;;;;;18.70;99.90;;;;;;5190593;28;19917;-73
2022/03/29 08:26:57;;;;;;;;;;;18.40;99.90;;;;;;5198635;28;19908;-73
2022/03/29 08:29:29;;;;;;;;;;;18.40;99.90;;;;;;5182241;28;19923;-75
2022/03/29 08:32:03;;;;;;;;;;;18.30;99.90;;;;;;5216538;28;19984;-73
2022/03/29 08:34:37;;;;;;;;;;;18.40;99.90;;;;;;5205370;28;19909;-72
2022/03/29 08:37:12;;;;;;;;;;;18.20;99.90;;;;;;5190693;28;19908;-72
2022/03/29 08:39:43;;;;;;;;;;;18.30;99.90;;;;;;5199130;28;19920;-74
2022/03/29 08:42:18;;;;;;;;;;;18.40;99.90;;;;;;5184218;28;19915;-73
2022/03/29 08:44:52;;;;;;;;;;;18.60;99.90;;;;;;5212379;28;19923;-74
2022/03/29 08:47:27;;;;;;;;;;;18.60;99.90;;;;;;5215454;28;19917;-74
2022/03/29 08:50:05;;;;;;;;;;;18.70;99.90;;;;;;5205361;28;19932;-74
2022/03/29 08:52:40;;;;;;;;;;;18.70;99.90;;;;;;5199652;28;19916;-72
2022/03/29 08:55:11;;;;;;;;;;;18.90;99.90;;;;;;5188171;28;19909;-74
2022/03/29 08:57:43;;;;;;;;;;;19.20;99.90;;;;;;5203337;28;19915;-72
2022/03/29 09:00:16;;;;;;;;;;;19.00;99.90;;;;;;5183458;28;20523;-71
2022/03/29 09:02:50;;;;;;;;;;;19.00;99.90;;;;;;5199683;28;20447;-72
2022/03/29 09:05:31;;;;;;;;;;;19.20;99.90;;;;;;5175558;28;19913;-71
2022/03/29 09:08:13;;;;;;;;;;;19.30;99.90;;;;;;5190873;28;19913;-71
2022/03/29 09:10:49;;;;;;;;;;;19.50;99.90;;;;;;5198162;28;19916;-70
2022/03/29 09:13:29;;;;;;;;;;;19.40;99.90;;;;;;5197662;28;19917;-72
2022/03/29 09:22:55;;;;;;;1.92;1.83;;;19.40;99.90;;;;;;5320381;27;20386;-76
2022/03/29 09:25:39;;;;;;;2.08;1.98;;;19.20;99.90;;;;;;5276749;27;20803;-77
2022/03/29 09:28:13;;;;;;;1.20;1.20;;;19.60;99.90;;;;;;5276507;27;20042;-78
2022/03/29 09:30:54;;;;;;;2.33;2.15;;;20.10;99.90;;;;;;5267615;27;20054;-79
2022/03/29 09:33:39;;;;;;;0.73;0.73;;;20.10;99.90;;;;;;5278232;27;20065;-78
2022/03/29 09:36:20;;;;;;;0.95;0.95;;;19.90;99.90;;;;;;5292708;27;20256;-77
2022/03/29 09:38:53;;;;;;;1.05;1.05;;;20.10;99.90;;;;;;5293200;27;20043;-74
2022/03/29 09:41:32;;;;;;;2.25;2.13;;;20.00;99.90;;;;;;5296365;27;20649;-77
2022/03/29 09:44:19;;;;;;;1.00;1.00;;;20.30;99.90;;;;;;5299014;27;20041;-75
2022/03/29 09:47:10;;;;;;;1.52;1.48;;;20.60;99.90;;;;;;5271894;27;20051;-77
2022/03/29 09:50:08;;;;;;;0.85;0.85;;;20.50;99.90;;;;;;5290435;27;20039;-78
2022/03/29 09:52:44;;;;;;;1.02;1.00;;;20.60;99.90;;;;;;5291164;27;20388;-75
2022/03/29 09:55:23;;;;;;;0.95;0.95;;;19.90;99.90;;;;;;5287510;27;20050;-79
2022/03/29 09:57:58;;;;;;;0.70;0.70;;;20.30;99.90;;;;;;5288534;27;20275;-77
2022/03/29 10:00:32;;;;;;;1.85;1.75;;;20.60;99.90;;;;;;5298393;27;20019;-75
2022/03/29 10:03:09;;;;;;;2.90;1.23;;;20.80;99.90;;;;;;5275098;27;20051;-78
2022/03/29 10:21:30;;;;;;;1.60;1.50;;;20.40;98.40;;;;;;5269111;27;21787;-76
2022/03/29 10:24:05;;;;;;;0.70;0.70;;;20.60;98.40;;;;;;5251436;28;20041;-77
2022/03/29 10:26:37;;;;;;;1.55;1.30;;;20.70;97.80;;;;;;5247888;28;20047;-76
2022/03/29 10:29:16;;;;;;;2.28;1.83;;;21.50;97.70;;;;;;5251831;28;20075;-79
2022/03/29 10:31:52;;;;;;;1.15;1.15;;;21.60;97.20;;;;;;5235191;28;20045;-78
2022/03/29 10:34:39;;;;;;;1.63;1.52;;;21.70;97.40;;;;;;5223729;28;20488;-77
2022/03/29 10:37:23;;;;;;;1.27;1.27;;;21.80;97.20;;;;;;5234721;28;20038;-79
2022/03/29 10:40:09;;;;;;;1.67;1.58;;;21.70;96.90;;;;;;5242294;28;20031;-79
2022/03/29 10:42:50;;;;;;;0.98;0.98;;;21.60;96.50;;;;;;5243485;28;20253;-80
2022/03/29 10:45:28;;;;;;;1.38;1.27;;;22.20;96.70;;;;;;5240200;28;20356;-78
2022/03/29 10:47:59;;;;;;;1.55;1.35;;;23.30;95.30;;;;;;5250221;28;20036;-79
2022/03/29 10:50:56;;;;;;;0.47;0.47;;;23.30;94.60;;;;;;5248472;28;20071;-80
2022/03/29 10:53:37;;;;;;;7.15;2.00;;;22.50;94.90;;;;;;5251831;28;20063;-82
2022/03/29 10:56:27;;;;;;;1.08;1.08;;;22.80;94.10;;;;;;5250681;28;20047;-79
2022/03/29 10:59:02;;;;;;;2.25;2.05;;;23.10;94.60;;;;;;5226062;28;20024;-81
2022/03/29 11:01:37;;;;;;;1.27;1.23;;;22.90;94.20;;;;;;5245210;28;20058;-78
2022/03/29 11:04:21;;;;;;;1.15;1.15;;;23.40;93.20;;;;;;5241384;28;20054;-76
2022/03/29 11:07:09;;;;;;;1.10;1.10;;;23.30;93.80;;;;;;5202618;28;20052;-79
2022/03/29 11:09:46;;;;;;;1.70;1.25;;;22.40;93.60;;;;;;5210961;28;20040;-76
2022/03/29 11:12:45;;;;;;;1.20;1.20;;;22.40;93.70;;;;;;5214833;28;20045;-75
2022/03/29 11:15:38;;;;;;;2.00;1.90;;;22.50;93.70;;;;;;5207699;28;20219;-77
2022/03/29 11:18:30;;;;;;;1.85;1.75;;;23.30;93.90;;;;;;5212737;28;20522;-77
2022/03/29 11:21:05;;;;;;;0.68;0.68;;;23.90;93.30;;;;;;5209907;28;20048;-77
2022/03/29 11:23:41;;;;;;;1.48;1.38;;;23.90;92.90;;;;;;5222826;28;20047;-79
2022/03/29 11:26:21;;;;;;;0.93;0.93;;;23.20;92.70;;;;;;5222926;28;20689;-78
2022/03/29 11:28:58;;;;;;;1.50;1.40;;;24.20;94.20;;;;;;5226650;28;20053;-79
2022/03/29 11:31:49;;;;;;;2.50;2.40;;;24.80;91.90;;;;;;5206813;28;20314;-76
2022/03/29 11:34:21;;;;;;;1.95;1.83;;;23.60;92.30;;;;;;5203122;28;20041;-79
2022/03/29 11:36:57;;;;;;;0.63;0.63;;;23.40;93.00;;;;;;5211372;28;20212;-79
2022/03/29 11:39:31;;;;;;;2.40;2.20;;;23.40;92.30;;;;;;5167557;28;20048;-79
2022/03/29 11:42:06;;;;;;;0.60;0.60;;;23.60;92.70;;;;;;5202005;28;20132;-79
2022/03/29 11:44:41;;;;;;;;;;;23.30;92.90;;;;;;5201269;28;20215;-79
2022/03/29 11:47:15;;;;;;;2.03;1.92;;;24.60;91.60;;;;;;5177659;28;20146;-76
2022/03/29 11:49:49;;;;;;;1.15;1.15;;;24.10;91.30;;;;;;5207029;28;20043;-77
2022/03/29 11:52:22;;;;;;;1.52;1.48;;;23.60;92.00;;;;;;5173558;28;20041;-77
2022/03/29 11:54:55;;;;;;;1.55;1.50;;;23.60;91.50;;;;;;5204711;28;20040;-77
2022/03/29 11:57:30;;;;;;;1.17;1.17;;;23.30;91.50;;;;;;5205172;28;20048;-80
2022/03/29 12:00:04;;;;;;;1.67;1.58;;;22.80;91.80;;;;;;5169542;28;20068;-78
2022/03/29 12:02:43;;;;;;;1.67;1.58;;;22.90;91.60;;;;;;5191063;28;20045;-79
2022/03/29 12:05:43;;;;;;;2.33;2.22;;;23.90;91.40;;;;;;5196662;28;20243;-77
2022/03/29 12:08:14;;;;;;;1.38;1.30;;;25.30;90.70;;;;;;5217646;28;20075;-78
2022/03/29 12:10:49;;;;;;;1.35;1.25;;;26.40;91.20;;;;;;5207853;28;20294;-79
2022/03/29 12:13:20;;;;;;;1.98;1.77;;;28.10;90.30;;;;;;5222620;28;20239;-77
2022/03/29 12:15:55;;;;;;;1.73;1.63;;;27.30;87.50;;;;;;5221590;28;20036;-78
2022/03/29 12:18:42;;;;;;;2.10;1.55;;;27.00;87.00;;;;;;5213023;28;20803;-78
2022/03/29 12:21:20;;;;;;;2.15;1.90;;;25.90;87.60;;;;;;5223134;28;20381;-78
2022/03/29 12:24:04;;;;;;;2.13;1.95;;;25.00;89.20;;;;;;5223600;28;20348;-78
2022/03/29 12:26:40;;;;;;;2.03;1.92;;;25.60;87.30;;;;;;5208730;28;20313;-77
2022/03/29 12:29:25;;;;;;;0.93;0.93;;;24.70;87.70;;;;;;5229260;28;20541;-77
2022/03/29 12:32:02;;;;;;;0.75;0.75;;;23.40;90.10;;;;;;5207780;28;20048;-77
2022/03/29 12:34:38;;;;;;;3.20;2.88;;;23.70;90.30;;;;;;5192068;28;20043;-78
2022/03/29 12:37:16;;;;;;;2.33;1.92;;;24.00;89.30;;;;;;5210810;28;20211;-77
2022/03/29 12:40:03;;;;;;;10.25;2.03;;;23.90;89.60;;;;;;5214552;28;20490;-79
2022/03/29 12:42:35;;;;;;;0.82;0.82;;;23.90;90.10;;;;;;5227561;28;20467;-79
2022/03/29 12:45:11;;;;;;;1.77;1.67;;;24.80;89.70;;;;;;5191067;28;20070;-79
2022/03/29 12:47:44;;;;;;;2.10;1.80;;;24.70;88.20;;;;;;5221750;28;20042;-78
2022/03/29 12:50:16;;;;;;;3.78;1.13;;;23.90;89.60;;;;;;5218139;28;20313;-76
2022/03/29 12:53:03;;;;;;;1.08;1.08;;;24.50;88.30;;;;;;5225431;28;20395;-79
2022/03/29 12:55:38;;;;;;;0.88;0.88;;;24.90;87.60;;;;;;5231878;28;20372;-77
2022/03/29 12:58:12;;;;;;;3.90;2.50;;;25.30;86.40;;;;;;5226667;28;20052;-77
2022/03/29 13:00:45;;;;;;;1.48;1.42;;;25.20;86.40;;;;;;5230719;28;20125;-77
2022/03/29 13:03:18;;;;;;;3.50;3.20;;;25.80;86.70;;;;;;5228995;28;20041;-78
2022/03/29 13:05:53;;;;;;;2.90;2.72;;;24.50;87.30;;;;;;5221065;28;20413;-77
2022/03/29 13:08:24;;;;;;;;;;;23.70;88.10;;;;;;5223105;28;20343;-78
2022/03/29 13:11:20;;;;;;;1.13;1.10;;;23.90;88.80;;;;;;5230605;28;19932;-78
2022/03/29 13:14:11;;;;;;;2.58;2.05;;;24.50;88.40;;;;;;5211653;28;20036;-78
2022/03/29 13:16:54;;;;;;;2.50;1.73;;;24.00;87.20;;;;;;5225880;28;20047;-77
2022/03/29 13:19:28;;;;;;;3.95;2.67;;;23.70;87.30;;;;;;5226500;28;20047;-76
2022/03/29 13:22:08;;;;;;;1.48;1.38;;;23.20;88.30;;;;;;5228516;28;20327;-77
2022/03/29 13:24:41;;;;;;;1.25;1.23;;;23.30;88.90;;;;;;5222009;28;20032;-76
2022/03/29 13:27:17;;;;;;;0.93;0.93;;;23.30;88.20;;;;;;5215119;28;20053;-77
2022/03/29 13:29:49;;;;;;;1.30;1.30;;;22.80;87.50;;;;;;5226839;28;20042;-77
2022/03/29 13:32:21;;;;;;;2.80;1.63;;;22.90;87.20;;;;;;5208028;28;20261;-78
2022/03/29 13:34:58;;;;;;;1.80;1.70;;;23.00;87.50;;;;;;5222433;28;20373;-75
2022/03/29 13:37:31;;;;;;;0.88;0.88;;;23.10;87.20;;;;;;5198670;28;20048;-76
2022/03/29 13:40:05;;;;;;;1.40;1.30;;;23.00;86.90;;;;;;5230339;28;20040;-75
2022/03/29 13:42:39;;;;;;;1.55;1.45;;;22.80;87.10;;;;;;5203873;28;20609;-77
2022/03/29 13:45:20;;;;;;;1.15;1.13;;;23.20;87.50;;;;;;5225209;28;21218;-79
2022/03/29 13:47:51;;;;;;;1.98;1.88;;;23.30;87.60;;;;;;5228537;28;20037;-77
2022/03/29 13:50:30;;;;;;;2.47;2.28;;;23.20;87.50;;;;;;5225529;28;20037;-79
2022/03/29 13:53:07;;;;;;;1.40;1.30;;;23.30;87.60;;;;;;5202412;28;20041;-77
2022/03/29 13:55:44;;;;;;;1.20;1.20;;;23.30;86.60;;;;;;5211259;28;20036;-77
2022/03/29 13:58:19;;;;;;;2.45;1.95;;;23.50;87.20;;;;;;5222571;28;20583;-78
2022/03/29 14:00:51;;;;;;;1.08;0.95;;;24.00;86.80;;;;;;5216643;28;20045;-78
2022/03/29 14:03:27;;;;;;;2.75;1.77;;;23.60;86.60;;;;;;5205232;28;20055;-78
2022/03/29 14:10:37;;;;;;;0.80;0.80;;;23.10;86.80;;;;;;5130435;28;20062;-77
2022/03/29 14:13:10;;;;;;;1.38;1.35;;;23.30;85.90;;;;;;5121295;28;20111;-76
2022/03/29 14:15:48;;;;;;;2.00;1.33;;;23.10;85.80;;;;;;5099114;28;20046;-79
2022/03/29 14:18:22;;;;;;;1.02;1.02;;;23.00;85.30;;;;;;5100699;28;21501;-78
2022/03/29 14:20:58;;;;;;;2.05;1.83;;;22.50;86.90;;;;;;5077888;28;20547;-75
2022/03/29 14:23:33;;;;;;;1.00;0.98;;;22.80;87.10;;;;;;5100303;28;20749;-77
2022/03/29 14:26:12;;;;;;;1.17;0.93;;;23.00;86.40;;;;;;5115625;28;20031;-76
2022/03/29 14:28:45;;;;;;;1.40;1.33;;;23.10;86.60;;;;;;5105485;28;20065;-78
2022/03/29 14:31:18;;;;;;;1.65;1.55;;;23.30;87.00;;;;;;5114762;28;20055;-78
2022/03/29 14:33:49;;;;;;;3.05;2.40;;;23.00;86.40;;;;;;5126730;28;20542;-76
2022/03/29 14:36:21;;;;;;;1.55;1.30;;;23.20;86.80;;;;;;5101702;28;20708;-80
2022/03/29 14:38:54;;;;;;;2.53;2.30;;;23.00;87.10;;;;;;5081539;28;20047;-77
2022/03/29 14:41:29;;;;;;;1.15;1.10;;;23.00;87.10;;;;;;5110893;29;20050;-78
2022/03/29 14:44:10;;;;;;;1.88;1.77;;;22.50;86.00;;;;;;5113193;28;20140;-75
2022/03/29 14:46:47;;;;;;;1.88;1.77;;;22.20;86.80;;;;;;5165251;28;20051;-79
2022/03/29 14:49:19;;;;;;;1.38;1.27;;;22.10;87.10;;;;;;5211442;28;20054;-76
2022/03/29 14:51:51;;;;;;;1.42;1.35;;;21.60;87.60;;;;;;5225695;28;20458;-77
2022/03/29 14:54:29;;;;;;;1.40;1.33;;;21.50;87.50;;;;;;5226439;28;20043;-78
2022/03/29 14:57:01;;;;;;;1.67;1.58;;;21.40;87.80;;;;;;5225325;28;20119;-76
2022/03/29 14:59:34;;;;;;;0.88;0.88;;;21.10;87.60;;;;;;5214992;28;20032;-77
2022/03/29 15:02:17;;;;;;;1.58;1.48;;;20.90;87.40;;;;;;5218451;28;20550;-75
2022/03/29 15:04:52;;;;;;;1.67;1.63;;;21.30;88.90;;;;;;5211305;28;20061;-80
2022/03/29 15:07:32;;;;;;;6.43;2.42;;;22.00;87.60;;;;;;5204685;28;20036;-77
2022/03/29 15:10:08;;;;;;;2.42;2.33;;;22.00;86.20;;;;;;5218534;28;20044;-78